sensor_id;sensor_type;location;lat;lon;timestamp;P1;P2;P0
50321;PMS5003;36227;53.366;-1.426;2023-06-26T00:01:18;5;4;
50321;PMS5003;36227;53.366;-1.426;2023-06-26T00:03:43;4;4;
50321;PMS5003;36227;53.366;-1.426;2023-06-26T00:06:08;4;4;
50321;PMS5003;36227;53.366;-1.426;2023-06-26T00:08:34;5;5;
50321;PMS5003;36227;53.366;-1.426;2023-06-26T00:10:59;4;4;
50321;PMS5003;36227;53.366;-1.426;2023-06-26T00:13:24;5;5;
50321;PMS5003;36227;53.366;-1.426;2023-06-26T00:15:49;9;9;
50321;PMS5003;36227;53.366;-1.426;2023-06-26T00:18:14;4;3;
50321;PMS5003;36227;53.366;-1.426;2023-06-26T00:20:39;4;4;
50321;PMS5003;36227;53.366;-1.426;2023-06-26T00:23:04;2;2;
50321;PMS5003;36227;53.366;-1.426;2023-06-26T00:25:29;3;3;
50321;PMS5003;36227;53.366;-1.426;2023-06-26T00:27:54;5;5;
50321;PMS5003;36227;53.366;-1.426;2023-06-26T00:30:19;5;5;
50321;PMS5003;36227;53.366;-1.426;2023-06-26T00:32:45;3;3;
50321;PMS5003;36227;53.366;-1.426;2023-06-26T00:35:10;6;6;
50321;PMS5003;36227;53.366;-1.426;2023-06-26T00:37:35;4;3;
50321;PMS5003;36227;53.366;-1.426;2023-06-26T00:40:00;3;3;
50321;PMS5003;36227;53.366;-1.426;2023-06-26T00:42:26;3;3;
50321;PMS5003;36227;53.366;-1.426;2023-06-26T00:44:51;2;2;
50321;PMS5003;36227;53.366;-1.426;2023-06-26T00:47:16;5;5;
50321;PMS5003;36227;53.366;-1.426;2023-06-26T00:49:41;3;3;
50321;PMS5003;36227;53.366;-1.426;2023-06-26T00:52:06;4;2;
50321;PMS5003;36227;53.366;-1.426;2023-06-26T00:54:31;5;4;
50321;PMS5003;36227;53.366;-1.426;2023-06-26T00:56:56;5;4;
50321;PMS5003;36227;53.366;-1.426;2023-06-26T00:59:22;3;3;
50321;PMS5003;36227;53.366;-1.426;2023-06-26T01:01:47;5;3;
50321;PMS5003;36227;53.366;-1.426;2023-06-26T01:04:12;6;5;
50321;PMS5003;36227;53.366;-1.426;2023-06-26T01:06:37;4;3;
50321;PMS5003;36227;53.366;-1.426;2023-06-26T01:09:02;5;4;
50321;PMS5003;36227;53.366;-1.426;2023-06-26T01:11:27;4;4;
50321;PMS5003;36227;53.366;-1.426;2023-06-26T01:13:53;5;2;
50321;PMS5003;36227;53.366;-1.426;2023-06-26T01:16:17;3;3;
50321;PMS5003;36227;53.366;-1.426;2023-06-26T01:18:43;5;5;
50321;PMS5003;36227;53.366;-1.426;2023-06-26T01:21:08;4;4;
50321;PMS5003;36227;53.366;-1.426;2023-06-26T01:23:37;5;4;
50321;PMS5003;36227;53.366;-1.426;2023-06-26T01:28:24;4;4;
50321;PMS5003;36227;53.366;-1.426;2023-06-26T01:30:49;4;4;
50321;PMS5003;36227;53.366;-1.426;2023-06-26T01:33:14;5;5;
50321;PMS5003;36227;53.366;-1.426;2023-06-26T01:35:39;4;4;
50321;PMS5003;36227;53.366;-1.426;2023-06-26T01:38:13;3;3;
50321;PMS5003;36227;53.366;-1.426;2023-06-26T01:40:29;5;3;
50321;PMS5003;36227;53.366;-1.426;2023-06-26T01:42:54;5;5;
50321;PMS5003;36227;53.366;-1.426;2023-06-26T01:45:20;3;3;
50321;PMS5003;36227;53.366;-1.426;2023-06-26T01:47:46;5;5;
50321;PMS5003;36227;53.366;-1.426;2023-06-26T01:50:11;5;5;
50321;PMS5003;36227;53.366;-1.426;2023-06-26T01:52:35;6;4;
50321;PMS5003;36227;53.366;-1.426;2023-06-26T01:55:02;5;5;
50321;PMS5003;36227;53.366;-1.426;2023-06-26T01:57:25;5;4;
50321;PMS5003;36227;53.366;-1.426;2023-06-26T01:59:51;5;4;
50321;PMS5003;36227;53.366;-1.426;2023-06-26T02:02:15;4;4;
50321;PMS5003;36227;53.366;-1.426;2023-06-26T02:04:41;5;5;
50321;PMS5003;36227;53.366;-1.426;2023-06-26T02:07:06;5;5;
50321;PMS5003;36227;53.366;-1.426;2023-06-26T02:09:31;3;2;
50321;PMS5003;36227;53.366;-1.426;2023-06-26T02:11:56;4;4;
50321;PMS5003;36227;53.366;-1.426;2023-06-26T02:14:21;3;3;
50321;PMS5003;36227;53.366;-1.426;2023-06-26T02:16:46;3;3;
50321;PMS5003;36227;53.366;-1.426;2023-06-26T02:19:11;4;4;
50321;PMS5003;36227;53.366;-1.426;2023-06-26T02:21:37;4;4;
50321;PMS5003;36227;53.366;-1.426;2023-06-26T02:24:06;8;5;
50321;PMS5003;36227;53.366;-1.426;2023-06-26T02:26:27;4;4;
50321;PMS5003;36227;53.366;-1.426;2023-06-26T02:28:52;3;3;
50321;PMS5003;36227;53.366;-1.426;2023-06-26T02:31:17;5;5;
50321;PMS5003;36227;53.366;-1.426;2023-06-26T02:33:42;10;10;
50321;PMS5003;36227;53.366;-1.426;2023-06-26T02:36:08;3;3;
50321;PMS5003;36227;53.366;-1.426;2023-06-26T02:38:33;5;5;
50321;PMS5003;36227;53.366;-1.426;2023-06-26T02:40:58;4;4;
50321;PMS5003;36227;53.366;-1.426;2023-06-26T02:43:23;6;6;
50321;PMS5003;36227;53.366;-1.426;2023-06-26T02:50:39;5;5;
50321;PMS5003;36227;53.366;-1.426;2023-06-26T02:53:05;4;4;
50321;PMS5003;36227;53.366;-1.426;2023-06-26T02:55:30;7;6;
50321;PMS5003;36227;53.366;-1.426;2023-06-26T02:57:55;5;5;
50321;PMS5003;36227;53.366;-1.426;2023-06-26T03:00:21;5;5;
50321;PMS5003;36227;53.366;-1.426;2023-06-26T03:02:45;5;5;
50321;PMS5003;36227;53.366;-1.426;2023-06-26T03:05:10;5;4;
50321;PMS5003;36227;53.366;-1.426;2023-06-26T03:07:35;8;7;
50321;PMS5003;36227;53.366;-1.426;2023-06-26T03:10:01;4;4;
50321;PMS5003;36227;53.366;-1.426;2023-06-26T03:12:26;5;5;
50321;PMS5003;36227;53.366;-1.426;2023-06-26T03:14:51;4;4;
50321;PMS5003;36227;53.366;-1.426;2023-06-26T03:17:16;7;6;
50321;PMS5003;36227;53.366;-1.426;2023-06-26T03:19:41;8;7;
50321;PMS5003;36227;53.366;-1.426;2023-06-26T03:22:06;7;7;
50321;PMS5003;36227;53.366;-1.426;2023-06-26T03:24:32;9;8;
50321;PMS5003;36227;53.366;-1.426;2023-06-26T03:26:57;7;7;
50321;PMS5003;36227;53.366;-1.426;2023-06-26T03:29:22;7;6;
50321;PMS5003;36227;53.366;-1.426;2023-06-26T03:31:47;7;7;
50321;PMS5003;36227;53.366;-1.426;2023-06-26T03:34:12;6;6;
50321;PMS5003;36227;53.366;-1.426;2023-06-26T03:36:37;8;8;
50321;PMS5003;36227;53.366;-1.426;2023-06-26T03:39:03;5;5;
50321;PMS5003;36227;53.366;-1.426;2023-06-26T03:41:29;8;7;
50321;PMS5003;36227;53.366;-1.426;2023-06-26T03:43:54;8;7;
50321;PMS5003;36227;53.366;-1.426;2023-06-26T03:46:23;7;7;
50321;PMS5003;36227;53.366;-1.426;2023-06-26T03:48:44;7;7;
50321;PMS5003;36227;53.366;-1.426;2023-06-26T03:51:09;7;7;
50321;PMS5003;36227;53.366;-1.426;2023-06-26T03:53:40;9;9;
50321;PMS5003;36227;53.366;-1.426;2023-06-26T03:55:59;9;9;
50321;PMS5003;36227;53.366;-1.426;2023-06-26T03:58:24;12;10;
50321;PMS5003;36227;53.366;-1.426;2023-06-26T04:00:49;10;9;
50321;PMS5003;36227;53.366;-1.426;2023-06-26T04:03:14;8;8;
50321;PMS5003;36227;53.366;-1.426;2023-06-26T04:05:39;9;8;
50321;PMS5003;36227;53.366;-1.426;2023-06-26T04:08:04;8;7;
50321;PMS5003;36227;53.366;-1.426;2023-06-26T04:10:29;9;9;
50321;PMS5003;36227;53.366;-1.426;2023-06-26T04:29:51;11;9;
50321;PMS5003;36227;53.366;-1.426;2023-06-26T04:32:17;10;10;
50321;PMS5003;36227;53.366;-1.426;2023-06-26T04:34:42;8;7;
50321;PMS5003;36227;53.366;-1.426;2023-06-26T04:37:12;9;9;
50321;PMS5003;36227;53.366;-1.426;2023-06-26T04:39:33;9;9;
50321;PMS5003;36227;53.366;-1.426;2023-06-26T04:41:58;7;7;
50321;PMS5003;36227;53.366;-1.426;2023-06-26T04:58:54;9;8;
50321;PMS5003;36227;53.366;-1.426;2023-06-26T05:01:21;7;7;
50321;PMS5003;36227;53.366;-1.426;2023-06-26T05:06:09;8;8;
50321;PMS5003;36227;53.366;-1.426;2023-06-26T05:08:34;7;7;
50321;PMS5003;36227;53.366;-1.426;2023-06-26T05:10:59;7;7;
50321;PMS5003;36227;53.366;-1.426;2023-06-26T05:13:25;7;7;
50321;PMS5003;36227;53.366;-1.426;2023-06-26T05:15:50;7;7;
50321;PMS5003;36227;53.366;-1.426;2023-06-26T05:18:15;6;6;
50321;PMS5003;36227;53.366;-1.426;2023-06-26T05:20:41;6;6;
50321;PMS5003;36227;53.366;-1.426;2023-06-26T05:23:05;5;5;
50321;PMS5003;36227;53.366;-1.426;2023-06-26T05:25:31;10;10;
50321;PMS5003;36227;53.366;-1.426;2023-06-26T05:27:56;7;7;
50321;PMS5003;36227;53.366;-1.426;2023-06-26T05:30:21;12;10;
50321;PMS5003;36227;53.366;-1.426;2023-06-26T05:32:47;11;11;
50321;PMS5003;36227;53.366;-1.426;2023-06-26T05:35:12;8;8;
50321;PMS5003;36227;53.366;-1.426;2023-06-26T05:37:38;8;7;
50321;PMS5003;36227;53.366;-1.426;2023-06-26T05:40:04;8;8;
50321;PMS5003;36227;53.366;-1.426;2023-06-26T05:42:29;6;6;
50321;PMS5003;36227;53.366;-1.426;2023-06-26T05:44:54;9;9;
50321;PMS5003;36227;53.366;-1.426;2023-06-26T05:47:19;9;7;
50321;PMS5003;36227;53.366;-1.426;2023-06-26T05:49:44;4;4;
50321;PMS5003;36227;53.366;-1.426;2023-06-26T05:52:11;9;9;
50321;PMS5003;36227;53.366;-1.426;2023-06-26T05:54:35;8;8;
50321;PMS5003;36227;53.366;-1.426;2023-06-26T05:57:05;8;8;
50321;PMS5003;36227;53.366;-1.426;2023-06-26T06:06:42;6;6;
50321;PMS5003;36227;53.366;-1.426;2023-06-26T06:09:13;9;8;
50321;PMS5003;36227;53.366;-1.426;2023-06-26T06:11:31;9;7;
50321;PMS5003;36227;53.366;-1.426;2023-06-26T06:13:56;7;7;
50321;PMS5003;36227;53.366;-1.426;2023-06-26T06:16:21;7;7;
50321;PMS5003;36227;53.366;-1.426;2023-06-26T06:18:46;8;7;
50321;PMS5003;36227;53.366;-1.426;2023-06-26T06:21:11;10;8;
50321;PMS5003;36227;53.366;-1.426;2023-06-26T06:23:37;5;5;
50321;PMS5003;36227;53.366;-1.426;2023-06-26T06:26:02;6;5;
50321;PMS5003;36227;53.366;-1.426;2023-06-26T06:28:27;6;6;
50321;PMS5003;36227;53.366;-1.426;2023-06-26T06:30:52;10;8;
50321;PMS5003;36227;53.366;-1.426;2023-06-26T06:33:17;6;5;
50321;PMS5003;36227;53.366;-1.426;2023-06-26T06:35:42;8;6;
50321;PMS5003;36227;53.366;-1.426;2023-06-26T06:38:07;6;4;
50321;PMS5003;36227;53.366;-1.426;2023-06-26T06:40:32;6;6;
50321;PMS5003;36227;53.366;-1.426;2023-06-26T06:42:58;7;6;
50321;PMS5003;36227;53.366;-1.426;2023-06-26T06:45:23;5;4;
50321;PMS5003;36227;53.366;-1.426;2023-06-26T06:47:48;8;8;
50321;PMS5003;36227;53.366;-1.426;2023-06-26T06:50:13;5;4;
50321;PMS5003;36227;53.366;-1.426;2023-06-26T06:52:39;6;6;
50321;PMS5003;36227;53.366;-1.426;2023-06-26T06:55:04;4;4;
50321;PMS5003;36227;53.366;-1.426;2023-06-26T06:57:29;4;4;
50321;PMS5003;36227;53.366;-1.426;2023-06-26T06:59:54;7;6;
50321;PMS5003;36227;53.366;-1.426;2023-06-26T07:04:45;5;5;
50321;PMS5003;36227;53.366;-1.426;2023-06-26T07:07:09;9;7;
50321;PMS5003;36227;53.366;-1.426;2023-06-26T07:09:35;4;3;
50321;PMS5003;36227;53.366;-1.426;2023-06-26T07:12:00;4;4;
50321;PMS5003;36227;53.366;-1.426;2023-06-26T07:14:25;6;5;
50321;PMS5003;36227;53.366;-1.426;2023-06-26T07:16:50;5;5;
50321;PMS5003;36227;53.366;-1.426;2023-06-26T07:19:16;5;5;
50321;PMS5003;36227;53.366;-1.426;2023-06-26T07:21:41;6;6;
50321;PMS5003;36227;53.366;-1.426;2023-06-26T07:24:06;5;5;
50321;PMS5003;36227;53.366;-1.426;2023-06-26T07:26:32;6;4;
50321;PMS5003;36227;53.366;-1.426;2023-06-26T07:28:57;6;6;
50321;PMS5003;36227;53.366;-1.426;2023-06-26T07:31:22;5;5;
50321;PMS5003;36227;53.366;-1.426;2023-06-26T07:33:47;6;6;
50321;PMS5003;36227;53.366;-1.426;2023-06-26T07:36:12;6;6;
50321;PMS5003;36227;53.366;-1.426;2023-06-26T07:38:37;6;6;
50321;PMS5003;36227;53.366;-1.426;2023-06-26T07:41:02;6;6;
50321;PMS5003;36227;53.366;-1.426;2023-06-26T07:43:27;7;6;
50321;PMS5003;36227;53.366;-1.426;2023-06-26T07:45:52;9;6;
50321;PMS5003;36227;53.366;-1.426;2023-06-26T07:48:18;4;4;
50321;PMS5003;36227;53.366;-1.426;2023-06-26T07:50:43;6;5;
50321;PMS5003;36227;53.366;-1.426;2023-06-26T07:53:08;6;5;
50321;PMS5003;36227;53.366;-1.426;2023-06-26T07:55:33;6;6;
50321;PMS5003;36227;53.366;-1.426;2023-06-26T07:57:58;7;7;
50321;PMS5003;36227;53.366;-1.426;2023-06-26T08:00:24;6;4;
50321;PMS5003;36227;53.366;-1.426;2023-06-26T08:02:49;6;4;
50321;PMS5003;36227;53.366;-1.426;2023-06-26T08:05:14;6;5;
50321;PMS5003;36227;53.366;-1.426;2023-06-26T08:07:39;5;5;
50321;PMS5003;36227;53.366;-1.426;2023-06-26T08:10:04;5;5;
50321;PMS5003;36227;53.366;-1.426;2023-06-26T08:12:29;6;5;
50321;PMS5003;36227;53.366;-1.426;2023-06-26T08:14:55;4;4;
50321;PMS5003;36227;53.366;-1.426;2023-06-26T08:17:20;4;4;
50321;PMS5003;36227;53.366;-1.426;2023-06-26T08:19:45;5;5;
50321;PMS5003;36227;53.366;-1.426;2023-06-26T08:22:10;5;5;
50321;PMS5003;36227;53.366;-1.426;2023-06-26T08:24:35;7;6;
50321;PMS5003;36227;53.366;-1.426;2023-06-26T08:27:00;6;6;
50321;PMS5003;36227;53.366;-1.426;2023-06-26T08:29:25;5;5;
50321;PMS5003;36227;53.366;-1.426;2023-06-26T08:31:50;6;6;
50321;PMS5003;36227;53.366;-1.426;2023-06-26T08:34:16;6;6;
50321;PMS5003;36227;53.366;-1.426;2023-06-26T08:36:41;5;5;
50321;PMS5003;36227;53.366;-1.426;2023-06-26T08:39:06;5;5;
50321;PMS5003;36227;53.366;-1.426;2023-06-26T08:41:31;5;4;
50321;PMS5003;36227;53.366;-1.426;2023-06-26T08:43:56;5;5;
50321;PMS5003;36227;53.366;-1.426;2023-06-26T08:46:21;6;5;
50321;PMS5003;36227;53.366;-1.426;2023-06-26T08:48:48;6;6;
50321;PMS5003;36227;53.366;-1.426;2023-06-26T08:51:12;7;5;
50321;PMS5003;36227;53.366;-1.426;2023-06-26T08:53:39;5;5;
50321;PMS5003;36227;53.366;-1.426;2023-06-26T08:56:02;5;5;
50321;PMS5003;36227;53.366;-1.426;2023-06-26T08:58:27;6;6;
50321;PMS5003;36227;53.366;-1.426;2023-06-26T09:00:52;7;6;
50321;PMS5003;36227;53.366;-1.426;2023-06-26T09:03:17;5;5;
50321;PMS5003;36227;53.366;-1.426;2023-06-26T09:05:42;7;7;
50321;PMS5003;36227;53.366;-1.426;2023-06-26T09:08:07;8;5;
50321;PMS5003;36227;53.366;-1.426;2023-06-26T09:10:33;6;6;
50321;PMS5003;36227;53.366;-1.426;2023-06-26T09:12:57;9;9;
50321;PMS5003;36227;53.366;-1.426;2023-06-26T09:15:23;7;6;
50321;PMS5003;36227;53.366;-1.426;2023-06-26T09:17:48;3;3;
50321;PMS5003;36227;53.366;-1.426;2023-06-26T09:20:13;5;4;
50321;PMS5003;36227;53.366;-1.426;2023-06-26T09:22:40;4;4;
50321;PMS5003;36227;53.366;-1.426;2023-06-26T09:25:04;7;5;
50321;PMS5003;36227;53.366;-1.426;2023-06-26T09:27:29;3;2;
50321;PMS5003;36227;53.366;-1.426;2023-06-26T09:29:54;5;5;
50321;PMS5003;36227;53.366;-1.426;2023-06-26T09:32:19;5;5;
50321;PMS5003;36227;53.366;-1.426;2023-06-26T09:34:44;5;5;
50321;PMS5003;36227;53.366;-1.426;2023-06-26T09:37:12;5;4;
50321;PMS5003;36227;53.366;-1.426;2023-06-26T09:39:34;2;2;
50321;PMS5003;36227;53.366;-1.426;2023-06-26T09:42:00;4;4;
50321;PMS5003;36227;53.366;-1.426;2023-06-26T09:44:25;2;2;
50321;PMS5003;36227;53.366;-1.426;2023-06-26T09:46:50;6;4;
50321;PMS5003;36227;53.366;-1.426;2023-06-26T09:49:15;4;4;
50321;PMS5003;36227;53.366;-1.426;2023-06-26T09:51:41;2;2;
50321;PMS5003;36227;53.366;-1.426;2023-06-26T09:54:05;1;1;
50321;PMS5003;36227;53.366;-1.426;2023-06-26T09:56:30;3;3;
50321;PMS5003;36227;53.366;-1.426;2023-06-26T09:58:55;4;4;
50321;PMS5003;36227;53.366;-1.426;2023-06-26T10:01:20;3;3;
50321;PMS5003;36227;53.366;-1.426;2023-06-26T10:03:45;4;4;
50321;PMS5003;36227;53.366;-1.426;2023-06-26T10:06:11;3;3;
50321;PMS5003;36227;53.366;-1.426;2023-06-26T10:08:36;5;5;
50321;PMS5003;36227;53.366;-1.426;2023-06-26T10:11:01;3;3;
50321;PMS5003;36227;53.366;-1.426;2023-06-26T10:13:27;4;4;
50321;PMS5003;36227;53.366;-1.426;2023-06-26T10:15:51;4;4;
50321;PMS5003;36227;53.366;-1.426;2023-06-26T10:18:16;3;3;
50321;PMS5003;36227;53.366;-1.426;2023-06-26T10:20:41;4;2;
50321;PMS5003;36227;53.366;-1.426;2023-06-26T10:23:06;3;3;
50321;PMS5003;36227;53.366;-1.426;2023-06-26T10:25:31;4;3;
50321;PMS5003;36227;53.366;-1.426;2023-06-26T10:27:57;3;3;
50321;PMS5003;36227;53.366;-1.426;2023-06-26T10:30:22;3;3;
50321;PMS5003;36227;53.366;-1.426;2023-06-26T10:32:47;3;3;
50321;PMS5003;36227;53.366;-1.426;2023-06-26T10:35:12;4;4;
50321;PMS5003;36227;53.366;-1.426;2023-06-26T10:37:42;4;4;
50321;PMS5003;36227;53.366;-1.426;2023-06-26T10:40:02;2;2;
50321;PMS5003;36227;53.366;-1.426;2023-06-26T10:44:52;7;5;
50321;PMS5003;36227;53.366;-1.426;2023-06-26T10:49:42;3;3;
50321;PMS5003;36227;53.366;-1.426;2023-06-26T10:52:07;2;2;
50321;PMS5003;36227;53.366;-1.426;2023-06-26T10:54:33;2;2;
50321;PMS5003;36227;53.366;-1.426;2023-06-26T10:56:58;3;3;
50321;PMS5003;36227;53.366;-1.426;2023-06-26T10:59:24;3;3;
50321;PMS5003;36227;53.366;-1.426;2023-06-26T11:04:14;3;3;
50321;PMS5003;36227;53.366;-1.426;2023-06-26T11:06:38;2;2;
50321;PMS5003;36227;53.366;-1.426;2023-06-26T11:09:06;4;3;
50321;PMS5003;36227;53.366;-1.426;2023-06-26T11:13:53;4;4;
50321;PMS5003;36227;53.366;-1.426;2023-06-26T11:16:19;1;1;
50321;PMS5003;36227;53.366;-1.426;2023-06-26T11:18:44;5;3;
50321;PMS5003;36227;53.366;-1.426;2023-06-26T11:21:10;3;3;
50321;PMS5003;36227;53.366;-1.426;2023-06-26T11:23:35;3;3;
50321;PMS5003;36227;53.366;-1.426;2023-06-26T11:28:25;3;2;
50321;PMS5003;36227;53.366;-1.426;2023-06-26T11:30:50;1;1;
50321;PMS5003;36227;53.366;-1.426;2023-06-26T11:33:15;4;3;
50321;PMS5003;36227;53.366;-1.426;2023-06-26T11:35:41;2;2;
50321;PMS5003;36227;53.366;-1.426;2023-06-26T11:38:05;4;3;
50321;PMS5003;36227;53.366;-1.426;2023-06-26T11:40:30;2;2;
50321;PMS5003;36227;53.366;-1.426;2023-06-26T11:42:55;3;3;
50321;PMS5003;36227;53.366;-1.426;2023-06-26T11:45:20;4;3;
50321;PMS5003;36227;53.366;-1.426;2023-06-26T11:47:45;3;2;
50321;PMS5003;36227;53.366;-1.426;2023-06-26T11:50:14;2;2;
50321;PMS5003;36227;53.366;-1.426;2023-06-26T11:52:36;0;0;
50321;PMS5003;36227;53.366;-1.426;2023-06-26T11:55:01;3;3;
50321;PMS5003;36227;53.366;-1.426;2023-06-26T11:57:26;2;2;
50321;PMS5003;36227;53.366;-1.426;2023-06-26T11:59:51;3;3;
50321;PMS5003;36227;53.366;-1.426;2023-06-26T12:02:16;6;6;
50321;PMS5003;36227;53.366;-1.426;2023-06-26T12:04:42;3;3;
50321;PMS5003;36227;53.366;-1.426;2023-06-26T12:07:07;6;6;
50321;PMS5003;36227;53.366;-1.426;2023-06-26T12:09:32;3;3;
50321;PMS5003;36227;53.366;-1.426;2023-06-26T12:11:57;3;3;
50321;PMS5003;36227;53.366;-1.426;2023-06-26T12:14:22;2;2;
50321;PMS5003;36227;53.366;-1.426;2023-06-26T12:16:47;1;1;
50321;PMS5003;36227;53.366;-1.426;2023-06-26T12:19:12;1;1;
50321;PMS5003;36227;53.366;-1.426;2023-06-26T12:21:44;7;6;
50321;PMS5003;36227;53.366;-1.426;2023-06-26T12:24:03;3;3;
50321;PMS5003;36227;53.366;-1.426;2023-06-26T12:26:28;11;11;
50321;PMS5003;36227;53.366;-1.426;2023-06-26T12:28:53;2;2;
50321;PMS5003;36227;53.366;-1.426;2023-06-26T12:31:20;8;8;
50321;PMS5003;36227;53.366;-1.426;2023-06-26T12:33:43;6;6;
50321;PMS5003;36227;53.366;-1.426;2023-06-26T12:36:10;3;3;
50321;PMS5003;36227;53.366;-1.426;2023-06-26T12:38:33;3;3;
50321;PMS5003;36227;53.366;-1.426;2023-06-26T12:40:58;3;3;
50321;PMS5003;36227;53.366;-1.426;2023-06-26T12:43:25;4;3;
50321;PMS5003;36227;53.366;-1.426;2023-06-26T12:45:48;4;3;
50321;PMS5003;36227;53.366;-1.426;2023-06-26T12:48:14;2;2;
50321;PMS5003;36227;53.366;-1.426;2023-06-26T12:50:43;2;2;
50321;PMS5003;36227;53.366;-1.426;2023-06-26T12:53:04;2;2;
50321;PMS5003;36227;53.366;-1.426;2023-06-26T12:55:29;3;3;
50321;PMS5003;36227;53.366;-1.426;2023-06-26T12:57:54;3;3;
50321;PMS5003;36227;53.366;-1.426;2023-06-26T13:00:20;4;4;
50321;PMS5003;36227;53.366;-1.426;2023-06-26T13:02:44;3;3;
50321;PMS5003;36227;53.366;-1.426;2023-06-26T13:05:09;5;5;
50321;PMS5003;36227;53.366;-1.426;2023-06-26T13:07:34;4;4;
50321;PMS5003;36227;53.366;-1.426;2023-06-26T13:09:59;11;10;
50321;PMS5003;36227;53.366;-1.426;2023-06-26T13:12:25;16;14;
50321;PMS5003;36227;53.366;-1.426;2023-06-26T13:14:51;19;18;
50321;PMS5003;36227;53.366;-1.426;2023-06-26T13:17:16;4;4;
50321;PMS5003;36227;53.366;-1.426;2023-06-26T13:19:41;9;9;
50321;PMS5003;36227;53.366;-1.426;2023-06-26T13:22:07;9;8;
50321;PMS5003;36227;53.366;-1.426;2023-06-26T13:24:32;4;4;
50321;PMS5003;36227;53.366;-1.426;2023-06-26T13:26:57;2;2;
50321;PMS5003;36227;53.366;-1.426;2023-06-26T13:29:22;2;2;
50321;PMS5003;36227;53.366;-1.426;2023-06-26T13:31:48;12;9;
50321;PMS5003;36227;53.366;-1.426;2023-06-26T13:36:38;0;0;
50321;PMS5003;36227;53.366;-1.426;2023-06-26T13:39:04;0;0;
50321;PMS5003;36227;53.366;-1.426;2023-06-26T13:41:29;5;5;
50321;PMS5003;36227;53.366;-1.426;2023-06-26T13:43:54;3;3;
50321;PMS5003;36227;53.366;-1.426;2023-06-26T13:46:20;9;6;
50321;PMS5003;36227;53.366;-1.426;2023-06-26T13:48:45;3;3;
50321;PMS5003;36227;53.366;-1.426;2023-06-26T13:51:10;2;2;
50321;PMS5003;36227;53.366;-1.426;2023-06-26T13:53:35;5;5;
50321;PMS5003;36227;53.366;-1.426;2023-06-26T13:56:00;2;2;
50321;PMS5003;36227;53.366;-1.426;2023-06-26T13:58:26;2;2;
50321;PMS5003;36227;53.366;-1.426;2023-06-26T14:00:51;1;1;
50321;PMS5003;36227;53.366;-1.426;2023-06-26T14:03:16;3;3;
50321;PMS5003;36227;53.366;-1.426;2023-06-26T14:05:41;2;2;
50321;PMS5003;36227;53.366;-1.426;2023-06-26T14:08:07;0;0;
50321;PMS5003;36227;53.366;-1.426;2023-06-26T14:10:31;2;2;
50321;PMS5003;36227;53.366;-1.426;2023-06-26T14:12:56;2;2;
50321;PMS5003;36227;53.366;-1.426;2023-06-26T14:15:21;2;2;
50321;PMS5003;36227;53.366;-1.426;2023-06-26T14:17:46;3;3;
50321;PMS5003;36227;53.366;-1.426;2023-06-26T14:20:11;2;2;
50321;PMS5003;36227;53.366;-1.426;2023-06-26T14:22:36;2;2;
50321;PMS5003;36227;53.366;-1.426;2023-06-26T14:25:02;1;1;
50321;PMS5003;36227;53.366;-1.426;2023-06-26T14:27:27;0;0;
50321;PMS5003;36227;53.366;-1.426;2023-06-26T14:29:52;1;1;
50321;PMS5003;36227;53.366;-1.426;2023-06-26T14:32:17;3;3;
50321;PMS5003;36227;53.366;-1.426;2023-06-26T14:34:42;3;2;
50321;PMS5003;36227;53.366;-1.426;2023-06-26T14:37:07;2;2;
50321;PMS5003;36227;53.366;-1.426;2023-06-26T14:39:33;4;1;
50321;PMS5003;36227;53.366;-1.426;2023-06-26T14:41:58;1;1;
50321;PMS5003;36227;53.366;-1.426;2023-06-26T14:44:23;2;2;
50321;PMS5003;36227;53.366;-1.426;2023-06-26T14:46:48;2;2;
50321;PMS5003;36227;53.366;-1.426;2023-06-26T14:49:13;2;2;
50321;PMS5003;36227;53.366;-1.426;2023-06-26T14:51:38;1;1;
50321;PMS5003;36227;53.366;-1.426;2023-06-26T14:54:03;4;3;
50321;PMS5003;36227;53.366;-1.426;2023-06-26T14:56:28;6;2;
50321;PMS5003;36227;53.366;-1.426;2023-06-26T14:58:53;1;1;
50321;PMS5003;36227;53.366;-1.426;2023-06-26T15:01:19;2;2;
50321;PMS5003;36227;53.366;-1.426;2023-06-26T15:03:44;2;1;
50321;PMS5003;36227;53.366;-1.426;2023-06-26T15:06:09;2;2;
50321;PMS5003;36227;53.366;-1.426;2023-06-26T15:08:34;3;2;
50321;PMS5003;36227;53.366;-1.426;2023-06-26T15:11:00;2;1;
50321;PMS5003;36227;53.366;-1.426;2023-06-26T15:13:24;2;2;
50321;PMS5003;36227;53.366;-1.426;2023-06-26T15:15:49;2;1;
50321;PMS5003;36227;53.366;-1.426;2023-06-26T15:18:14;2;1;
50321;PMS5003;36227;53.366;-1.426;2023-06-26T15:20:39;3;3;
50321;PMS5003;36227;53.366;-1.426;2023-06-26T15:23:04;3;3;
50321;PMS5003;36227;53.366;-1.426;2023-06-26T15:25:29;1;1;
50321;PMS5003;36227;53.366;-1.426;2023-06-26T15:27:55;5;5;
50321;PMS5003;36227;53.366;-1.426;2023-06-26T15:30:20;6;6;
50321;PMS5003;36227;53.366;-1.426;2023-06-26T15:32:45;13;13;
50321;PMS5003;36227;53.366;-1.426;2023-06-26T15:35:10;10;10;
50321;PMS5003;36227;53.366;-1.426;2023-06-26T15:37:35;10;8;
50321;PMS5003;36227;53.366;-1.426;2023-06-26T15:40:00;5;4;
50321;PMS5003;36227;53.366;-1.426;2023-06-26T15:42:26;1;1;
50321;PMS5003;36227;53.366;-1.426;2023-06-26T15:44:51;3;1;
50321;PMS5003;36227;53.366;-1.426;2023-06-26T15:47:15;1;1;
50321;PMS5003;36227;53.366;-1.426;2023-06-26T15:49:40;0;0;
50321;PMS5003;36227;53.366;-1.426;2023-06-26T15:52:06;3;1;
50321;PMS5003;36227;53.366;-1.426;2023-06-26T15:54:31;1;1;
50321;PMS5003;36227;53.366;-1.426;2023-06-26T15:56:56;1;1;
50321;PMS5003;36227;53.366;-1.426;2023-06-26T15:59:21;3;2;
50321;PMS5003;36227;53.366;-1.426;2023-06-26T16:01:46;3;2;
50321;PMS5003;36227;53.366;-1.426;2023-06-26T16:04:11;2;2;
50321;PMS5003;36227;53.366;-1.426;2023-06-26T16:06:36;2;2;
50321;PMS5003;36227;53.366;-1.426;2023-06-26T16:09:01;3;2;
50321;PMS5003;36227;53.366;-1.426;2023-06-26T16:11:26;5;4;
50321;PMS5003;36227;53.366;-1.426;2023-06-26T16:13:51;7;6;
50321;PMS5003;36227;53.366;-1.426;2023-06-26T16:16:17;3;3;
50321;PMS5003;36227;53.366;-1.426;2023-06-26T16:18:41;2;2;
50321;PMS5003;36227;53.366;-1.426;2023-06-26T16:21:07;7;6;
50321;PMS5003;36227;53.366;-1.426;2023-06-26T16:23:32;7;4;
50321;PMS5003;36227;53.366;-1.426;2023-06-26T16:25:57;5;3;
50321;PMS5003;36227;53.366;-1.426;2023-06-26T16:28:22;3;3;
50321;PMS5003;36227;53.366;-1.426;2023-06-26T16:30:47;1;1;
50321;PMS5003;36227;53.366;-1.426;2023-06-26T16:33:13;2;2;
50321;PMS5003;36227;53.366;-1.426;2023-06-26T16:35:38;3;3;
50321;PMS5003;36227;53.366;-1.426;2023-06-26T16:38:04;6;5;
50321;PMS5003;36227;53.366;-1.426;2023-06-26T16:40:28;1;1;
50321;PMS5003;36227;53.366;-1.426;2023-06-26T16:42:53;4;3;
50321;PMS5003;36227;53.366;-1.426;2023-06-26T16:45:18;4;4;
50321;PMS5003;36227;53.366;-1.426;2023-06-26T16:47:43;6;4;
50321;PMS5003;36227;53.366;-1.426;2023-06-26T16:50:09;3;3;
50321;PMS5003;36227;53.366;-1.426;2023-06-26T16:52:33;4;4;
50321;PMS5003;36227;53.366;-1.426;2023-06-26T16:54:58;3;3;
50321;PMS5003;36227;53.366;-1.426;2023-06-26T16:57:24;3;3;
50321;PMS5003;36227;53.366;-1.426;2023-06-26T16:59:49;12;10;
50321;PMS5003;36227;53.366;-1.426;2023-06-26T17:02:14;2;2;
50321;PMS5003;36227;53.366;-1.426;2023-06-26T17:04:39;4;4;
50321;PMS5003;36227;53.366;-1.426;2023-06-26T17:07:04;3;3;
50321;PMS5003;36227;53.366;-1.426;2023-06-26T17:09:29;4;4;
50321;PMS5003;36227;53.366;-1.426;2023-06-26T17:11:55;1;1;
50321;PMS5003;36227;53.366;-1.426;2023-06-26T17:14:20;2;2;
50321;PMS5003;36227;53.366;-1.426;2023-06-26T17:16:45;2;2;
50321;PMS5003;36227;53.366;-1.426;2023-06-26T17:19:10;2;2;
50321;PMS5003;36227;53.366;-1.426;2023-06-26T17:21:35;3;3;
50321;PMS5003;36227;53.366;-1.426;2023-06-26T17:24:00;2;2;